createdAt,value
2018-06-13T00:04:17.606Z,10.40
2018-06-13T00:09:21.713Z,10.17
2018-06-13T00:14:25.742Z,10.77
2018-06-13T00:19:29.577Z,10.07
2018-06-13T00:24:33.377Z,10.10
2018-06-13T00:29:37.212Z,10.17
2018-06-13T00:34:41.013Z,9.93
2018-06-13T00:39:44.818Z,9.47
2018-06-13T00:44:48.850Z,10.03
2018-06-13T00:49:52.705Z,10.60
2018-06-13T00:54:56.508Z,10.50
2018-06-13T01:00:00.561Z,10.53
2018-06-13T01:05:04.366Z,10.63
2018-06-13T01:10:08.168Z,10.53
2018-06-13T01:15:11.982Z,10.77
2018-06-13T01:20:16.625Z,10.18
2018-06-13T01:25:20.691Z,9.90
2018-06-13T01:30:24.754Z,9.40
2018-06-13T01:35:28.545Z,7.67
2018-06-13T01:40:32.324Z,7.27
2018-06-13T01:45:36.358Z,6.67
2018-06-13T01:50:53.398Z,6.33
2018-06-13T01:55:57.495Z,6.23
2018-06-13T02:01:01.277Z,5.80
2018-06-13T02:06:05.079Z,6.77
2018-06-13T02:11:09.171Z,5.83
2018-06-13T02:16:12.978Z,6.07
2018-06-13T02:21:17.014Z,5.73
2018-06-13T02:26:20.806Z,5.70
2018-06-13T02:31:24.602Z,6.03
2018-06-13T02:36:28.411Z,5.40
2018-06-13T02:41:32.221Z,4.97
2018-06-13T02:46:35.997Z,6.10
2018-06-13T02:51:39.801Z,5.33
2018-06-13T02:56:43.597Z,5.47
2018-06-13T03:01:47.392Z,5.10
2018-06-13T03:06:51.182Z,5.00
2018-06-13T03:11:55.237Z,5.33
2018-06-13T03:16:59.289Z,5.00
2018-06-13T03:22:03.538Z,6.00
2018-06-13T03:27:07.304Z,7.20
2018-06-13T03:32:11.090Z,7.90
2018-06-13T03:37:14.861Z,7.70
2018-06-13T03:42:18.645Z,7.80
2018-06-13T03:47:22.672Z,7.90
2018-06-13T03:52:26.686Z,8.23
2018-06-13T03:57:30.464Z,8.30
2018-06-13T04:02:34.241Z,8.13
2018-06-13T04:07:38.012Z,8.53
2018-06-13T04:12:42.067Z,7.13
2018-06-13T04:17:45.800Z,6.33
2018-06-13T04:22:49.570Z,6.30
2018-06-13T04:27:53.332Z,5.67
2018-06-13T04:32:57.346Z,5.50
2018-06-13T04:38:01.357Z,5.83
2018-06-13T04:43:05.548Z,5.53
2018-06-13T04:48:09.348Z,5.20
2018-06-13T04:53:13.253Z,5.27
2018-06-13T04:58:17.056Z,5.63
2018-06-13T05:03:20.816Z,6.07
2018-06-13T05:08:24.593Z,6.20
2018-06-13T05:13:28.440Z,6.30
2018-06-13T05:18:32.826Z,7.00
2018-06-13T05:23:37.805Z,7.63
2018-06-13T05:28:41.967Z,7.53
2018-06-13T05:33:45.937Z,7.40
2018-06-13T05:38:52.757Z,8.10
2018-06-13T05:43:56.948Z,8.97
2018-06-13T05:49:00.724Z,9.70
2018-06-13T05:54:04.529Z,9.40
2018-06-13T05:59:08.320Z,9.27
2018-06-13T06:04:12.147Z,8.10
2018-06-13T06:09:16.167Z,7.40
2018-06-13T06:14:19.964Z,7.58
2018-06-13T06:19:23.767Z,6.40
2018-06-13T06:24:27.555Z,5.90
2018-06-13T06:29:31.336Z,4.83
2018-06-13T06:34:35.413Z,5.10
2018-06-13T06:39:39.185Z,4.90
2018-06-13T06:44:42.961Z,4.63
2018-06-13T06:49:46.733Z,4.65
2018-06-13T06:54:50.735Z,3.70
2018-06-13T06:59:54.504Z,3.70
2018-06-13T07:04:58.511Z,3.43
2018-06-13T07:10:02.302Z,3.90
2018-06-13T07:15:06.313Z,2.87
2018-06-13T07:20:10.116Z,2.63
2018-06-13T07:25:13.879Z,2.70
2018-06-13T07:30:17.740Z,2.60
2018-06-13T07:35:21.519Z,2.50
2018-06-13T07:40:25.590Z,2.57
2018-06-13T07:45:29.375Z,2.57
2018-06-13T07:50:33.145Z,2.53
2018-06-13T07:55:37.148Z,3.27
2018-06-13T08:00:40.917Z,4.20
2018-06-13T08:05:44.720Z,3.10
2018-06-13T08:10:48.759Z,3.92
2018-06-13T08:15:52.554Z,4.30
2018-06-13T08:20:56.316Z,3.53
2018-06-13T08:26:00.144Z,3.53
2018-06-13T08:31:04.112Z,3.50
2018-06-13T08:36:08.244Z,3.33
2018-06-13T08:41:12.264Z,3.73
2018-06-13T08:46:16.277Z,3.67
2018-06-13T08:51:20.040Z,3.67
2018-06-13T08:56:23.806Z,3.30
2018-06-13T09:01:27.806Z,3.50
2018-06-13T09:06:31.567Z,3.20
2018-06-13T09:11:36.279Z,3.70
2018-06-13T09:16:40.055Z,4.20
2018-06-13T09:21:43.845Z,3.60
2018-06-13T09:26:47.851Z,3.13
2018-06-13T09:31:51.616Z,2.90
2018-06-13T09:36:55.617Z,8.73
2018-06-13T09:42:01.818Z,3.43
2018-06-13T09:47:06.897Z,4.10
2018-06-13T09:52:09.586Z,5.90
2018-06-13T09:57:13.521Z,7.20
2018-06-13T10:02:17.374Z,8.30
2018-06-13T10:07:21.070Z,7.50
2018-06-13T10:12:24.839Z,7.00
2018-06-13T10:17:28.608Z,6.10
2018-06-13T10:22:32.392Z,5.27
2018-06-13T10:27:40.623Z,3.80
2018-06-13T10:32:44.612Z,3.43
2018-06-13T10:37:48.729Z,3.13
2018-06-13T10:42:52.511Z,3.20
2018-06-13T10:47:56.299Z,3.30
2018-06-13T10:53:00.078Z,3.03
2018-06-13T10:58:03.883Z,3.13
2018-06-13T11:03:07.885Z,3.13
2018-06-13T11:08:11.727Z,3.10
2018-06-13T11:13:15.505Z,2.80
2018-06-13T11:18:19.277Z,3.13
2018-06-13T11:23:23.099Z,3.50
2018-06-13T11:28:27.084Z,6.00
2018-06-13T11:33:31.093Z,5.10
2018-06-13T11:38:34.868Z,5.60
2018-06-13T11:43:38.904Z,5.30
2018-06-13T11:48:42.672Z,5.30
2018-06-13T11:53:46.655Z,5.37
2018-06-13T11:58:50.444Z,5.87
2018-06-13T12:03:54.429Z,5.70
2018-06-13T12:08:58.437Z,5.13
2018-06-13T12:14:02.228Z,5.10
2018-06-13T12:19:06.028Z,4.10
2018-06-13T12:24:09.795Z,3.93
2018-06-13T12:29:13.813Z,3.90
2018-06-13T12:34:17.693Z,4.10
2018-06-13T12:39:21.737Z,3.70
2018-06-13T12:44:25.512Z,3.20
2018-06-13T12:49:29.276Z,3.20
2018-06-13T12:54:33.272Z,3.43
2018-06-13T12:59:37.298Z,3.23
2018-06-13T13:04:41.374Z,3.37
2018-06-13T13:09:45.094Z,3.43
2018-06-13T13:14:49.150Z,3.00
2018-06-13T13:19:52.931Z,3.00
2018-06-13T13:24:56.908Z,2.83
2018-06-13T13:30:00.930Z,2.70
2018-06-13T13:35:04.941Z,2.83
2018-06-13T13:40:08.701Z,3.60
2018-06-13T13:45:12.497Z,3.40
2018-06-13T13:50:17.057Z,4.00
2018-06-13T13:55:20.832Z,3.37
2018-06-13T14:00:24.809Z,3.10
2018-06-13T14:05:28.912Z,2.87
2018-06-13T14:10:32.912Z,2.98
2018-06-13T14:15:36.699Z,2.70
2018-06-13T14:20:40.476Z,3.47
2018-06-13T14:25:44.269Z,2.80
2018-06-13T14:30:48.274Z,2.97
2018-06-13T14:35:52.160Z,5.63
2018-06-13T14:40:55.937Z,2.93
2018-06-13T14:45:59.721Z,2.67
2018-06-13T14:51:03.489Z,2.70
2018-06-13T14:56:13.233Z,2.73
2018-06-13T15:01:17.027Z,2.60
2018-06-13T15:06:21.239Z,2.70
2018-06-13T15:11:25.026Z,2.77
2018-06-13T15:16:28.817Z,2.50
2018-06-13T15:21:32.602Z,2.37
2018-06-13T15:26:36.820Z,2.67
2018-06-13T15:31:40.833Z,2.57
2018-06-13T15:36:44.614Z,2.63
2018-06-13T15:41:48.372Z,2.40
2018-06-13T15:46:52.161Z,3.20
2018-06-13T15:51:56.165Z,2.87
2018-06-13T15:56:59.958Z,2.83
2018-06-13T16:02:03.728Z,2.80
2018-06-13T16:07:07.493Z,2.73
2018-06-13T16:12:11.278Z,2.33
2018-06-13T16:17:15.060Z,3.07
2018-06-13T16:22:18.848Z,2.50
2018-06-13T16:27:22.626Z,2.67
2018-06-13T16:32:26.424Z,2.90
2018-06-13T16:37:30.295Z,2.50
2018-06-13T16:42:34.071Z,2.63
2018-06-13T16:47:37.877Z,2.33
2018-06-13T16:52:59.071Z,2.27
2018-06-13T16:58:02.853Z,2.40
2018-06-13T17:03:06.702Z,2.47
2018-06-13T17:08:10.530Z,2.30
2018-06-13T17:13:14.345Z,2.40
2018-06-13T17:18:18.170Z,2.50
2018-06-13T17:23:22.032Z,2.30
2018-06-13T17:28:25.855Z,2.13
2018-06-13T17:33:30.103Z,2.40
2018-06-13T17:38:33.905Z,2.67
2018-06-13T17:43:37.732Z,2.40
2018-06-13T17:48:41.569Z,2.20
2018-06-13T17:53:45.403Z,2.37
2018-06-13T17:58:49.222Z,2.47
2018-06-13T18:03:53.085Z,2.60
2018-06-13T18:08:56.857Z,2.60
2018-06-13T18:14:00.660Z,2.70
2018-06-13T18:19:04.569Z,2.30
2018-06-13T18:24:08.614Z,2.50
2018-06-13T18:29:12.494Z,2.42
2018-06-13T18:34:16.927Z,2.63
2018-06-13T18:39:20.729Z,2.57
2018-06-13T18:44:24.560Z,2.40
2018-06-13T18:49:28.413Z,2.57
2018-06-13T18:54:32.242Z,2.50
2018-06-13T18:59:36.052Z,2.30
2018-06-13T19:04:39.883Z,2.20
2018-06-13T19:09:43.705Z,2.40
2018-06-13T19:14:47.517Z,2.63
2018-06-13T19:19:51.765Z,2.33
2018-06-13T19:24:55.832Z,2.30
2018-06-13T19:29:59.945Z,2.63
2018-06-13T19:35:03.786Z,2.50
2018-06-13T19:40:07.609Z,2.90
2018-06-13T19:45:11.440Z,2.90
2018-06-13T19:50:15.464Z,2.75
2018-06-13T19:55:24.838Z,3.07
2018-06-13T20:00:28.652Z,3.43
2018-06-13T20:05:38.274Z,3.33
2018-06-13T20:10:43.284Z,3.37
2018-06-13T20:15:53.106Z,3.50
2018-06-13T20:20:56.904Z,3.17
2018-06-13T20:26:06.439Z,4.13
2018-06-13T20:31:14.410Z,4.07
2018-06-13T20:36:18.169Z,3.43
2018-06-13T20:41:21.984Z,4.17
2018-06-13T20:46:26.038Z,4.30
2018-06-13T20:51:30.184Z,4.60
2018-06-13T20:56:33.986Z,4.53
2018-06-13T21:01:38.043Z,4.30
2018-06-13T21:06:42.475Z,4.10
2018-06-13T21:11:46.299Z,4.57
2018-06-13T21:16:50.120Z,4.10
2018-06-13T21:21:53.951Z,4.50
2018-06-13T21:26:57.848Z,4.47
2018-06-13T21:32:01.860Z,4.47
2018-06-13T21:37:05.692Z,4.40
2018-06-13T21:42:09.706Z,4.50
2018-06-13T21:47:14.323Z,4.37
2018-06-13T21:52:18.233Z,4.53
2018-06-13T21:57:22.284Z,4.77
2018-06-13T22:02:26.344Z,4.10
2018-06-13T22:07:30.168Z,4.60
2018-06-13T22:12:34.219Z,4.80
2018-06-13T22:17:38.024Z,4.30
2018-06-13T22:23:45.306Z,4.60
2018-06-13T22:28:49.373Z,4.97
2018-06-13T22:33:53.180Z,4.60
2018-06-13T22:38:56.984Z,4.57
2018-06-13T22:44:00.793Z,4.40
2018-06-13T22:49:04.845Z,4.33
2018-06-13T22:54:08.640Z,4.57
2018-06-13T22:59:12.701Z,4.77
2018-06-13T23:04:16.548Z,4.25
2018-06-13T23:09:20.537Z,4.57
2018-06-13T23:14:24.341Z,4.90
2018-06-13T23:19:28.211Z,4.83
2018-06-13T23:24:31.990Z,5.23
2018-06-13T23:29:36.000Z,5.03
2018-06-13T23:34:39.776Z,5.83
2018-06-13T23:39:43.552Z,5.70
2018-06-13T23:44:47.327Z,5.37
2018-06-13T23:49:51.145Z,5.43
2018-06-13T23:54:55.189Z,5.50
2018-06-13T23:59:58.970Z,5.60
